createdAt,value
2018-10-18T00:00:53.478Z,75.60
2018-10-18T00:01:56.221Z,76.57
2018-10-18T00:02:59.322Z,76.80
2018-10-18T00:04:02.025Z,76.76
2018-10-18T00:05:05.590Z,77.75
2018-10-18T00:06:08.348Z,77.50
2018-10-18T00:07:11.048Z,77.62
2018-10-18T00:08:13.972Z,77.87
2018-10-18T00:09:17.033Z,77.86
2018-10-18T00:10:19.710Z,78.00
2018-10-18T00:11:22.394Z,78.19
2018-10-18T00:12:25.240Z,77.99
2018-10-18T00:13:28.572Z,77.40
2018-10-18T00:14:32.306Z,76.37
2018-10-18T00:15:35.380Z,76.39
2018-10-18T00:16:38.834Z,76.51
2018-10-18T00:17:47.105Z,75.56
2018-10-18T00:18:49.847Z,75.38
2018-10-18T00:19:52.639Z,75.77
2018-10-18T00:20:55.516Z,75.50
2018-10-18T00:21:59.199Z,75.68
2018-10-18T00:23:02.486Z,75.57
2018-10-18T00:24:06.669Z,76.08
2018-10-18T00:25:09.742Z,76.68
2018-10-18T00:26:12.621Z,76.04
2018-10-18T00:27:15.609Z,75.49
2018-10-18T00:28:19.343Z,75.65
2018-10-18T00:29:25.323Z,76.46
2018-10-18T00:30:30.462Z,76.14
2018-10-18T00:31:33.190Z,76.64
2018-10-18T00:32:36.846Z,77.28
2018-10-18T00:33:42.584Z,78.56
2018-10-18T00:34:45.629Z,77.97
2018-10-18T00:35:51.692Z,78.32
2018-10-18T00:36:54.418Z,78.61
2018-10-18T00:38:00.043Z,78.08
2018-10-18T00:39:04.100Z,77.46
2018-10-18T00:40:08.001Z,78.14
2018-10-18T00:41:11.997Z,77.18
2018-10-18T00:42:14.929Z,77.55
2018-10-18T00:43:18.217Z,76.96
2018-10-18T00:44:20.938Z,77.63
2018-10-18T00:45:23.788Z,77.55
2018-10-18T00:46:26.476Z,78.26
2018-10-18T00:47:29.476Z,77.99
2018-10-18T00:48:33.051Z,78.17
2018-10-18T00:49:36.071Z,78.99
2018-10-18T00:50:39.268Z,79.38
2018-10-18T00:51:43.517Z,79.35
2018-10-18T00:52:46.219Z,79.52
2018-10-18T00:53:49.239Z,79.17
2018-10-18T00:54:52.168Z,79.88
2018-10-18T00:55:55.857Z,79.66
2018-10-18T00:56:58.542Z,79.38
2018-10-18T00:58:02.019Z,79.72
2018-10-18T00:59:04.762Z,79.88
2018-10-18T01:00:09.992Z,80.07
2018-10-18T01:01:12.811Z,79.94
2018-10-18T01:02:16.196Z,79.64
2018-10-18T01:03:19.006Z,79.93
2018-10-18T01:04:21.746Z,80.13
2018-10-18T01:05:24.713Z,80.94
2018-10-18T01:06:27.441Z,80.23
2018-10-18T01:07:30.356Z,80.42
2018-10-18T01:08:33.330Z,80.98
2018-10-18T01:09:36.039Z,80.69
2018-10-18T01:10:42.532Z,80.83
2018-10-18T01:11:45.547Z,80.14
2018-10-18T01:12:48.592Z,80.09
2018-10-18T01:13:51.256Z,79.89
2018-10-18T01:14:54.058Z,79.56
2018-10-18T01:15:56.843Z,79.77
2018-10-18T01:17:05.588Z,80.27
2018-10-18T01:18:08.803Z,79.66
2018-10-18T01:19:11.566Z,80.24
2018-10-18T01:20:15.052Z,80.61
2018-10-18T01:21:17.963Z,80.23
2018-10-18T01:22:21.260Z,80.72
2018-10-18T01:23:26.621Z,80.47
2018-10-18T01:24:29.551Z,80.54
2018-10-18T01:25:33.909Z,80.42
2018-10-18T01:26:37.296Z,80.50
2018-10-18T01:27:41.424Z,80.48
2018-10-18T01:28:44.093Z,80.09
2018-10-18T01:29:47.500Z,80.51
2018-10-18T01:30:50.701Z,79.96
2018-10-18T01:31:53.455Z,80.15
2018-10-18T01:32:56.281Z,79.36
2018-10-18T01:33:59.139Z,79.31
2018-10-18T01:35:02.156Z,79.29
2018-10-18T01:36:05.248Z,79.09
2018-10-18T01:37:08.136Z,78.66
2018-10-18T01:38:11.257Z,78.72
2018-10-18T01:39:14.013Z,78.31
2018-10-18T01:40:17.019Z,78.02
2018-10-18T01:41:20.007Z,78.79
2018-10-18T01:42:22.730Z,78.19
2018-10-18T01:43:25.665Z,79.15
2018-10-18T01:44:28.409Z,78.94
2018-10-18T01:45:31.185Z,78.87
2018-10-18T01:46:34.541Z,79.03
2018-10-18T01:47:38.001Z,78.38
2018-10-18T01:48:40.696Z,78.43
2018-10-18T01:49:43.449Z,78.59
2018-10-18T01:50:46.166Z,77.90
2018-10-18T01:51:48.889Z,77.98
2018-10-18T01:52:51.625Z,77.39
2018-10-18T01:53:54.652Z,77.97
2018-10-18T01:54:58.181Z,77.82
2018-10-18T01:56:00.985Z,77.85
2018-10-18T01:57:03.723Z,78.44
2018-10-18T01:58:06.932Z,78.05
2018-10-18T01:59:11.252Z,77.94
2018-10-18T02:00:15.384Z,78.41
2018-10-18T02:01:17.955Z,78.86
2018-10-18T02:02:20.672Z,78.54
2018-10-18T02:03:23.368Z,78.76
2018-10-18T02:04:26.056Z,78.74
2018-10-18T02:05:28.774Z,78.79
2018-10-18T02:06:31.851Z,78.26
2018-10-18T02:07:34.551Z,78.79
2018-10-18T02:08:38.011Z,78.97
2018-10-18T02:09:40.789Z,78.71
2018-10-18T02:10:43.495Z,79.14
2018-10-18T02:11:46.181Z,79.51
2018-10-18T02:12:49.171Z,80.12
2018-10-18T02:13:51.891Z,80.45
2018-10-18T02:14:54.628Z,81.14
2018-10-18T02:15:58.300Z,81.05
2018-10-18T02:17:01.024Z,81.31
2018-10-18T02:18:03.762Z,80.91
2018-10-18T02:19:07.290Z,81.10
2018-10-18T02:20:10.755Z,81.59
2018-10-18T02:21:13.474Z,82.07
2018-10-18T02:22:16.178Z,81.86
2018-10-18T02:23:18.911Z,82.22
2018-10-18T02:24:21.609Z,81.90
2018-10-18T02:25:24.603Z,82.30
2018-10-18T02:26:27.630Z,82.38
2018-10-18T02:27:30.362Z,81.86
2018-10-18T02:28:33.166Z,81.88
2018-10-18T02:29:35.922Z,82.28
2018-10-18T02:30:38.668Z,81.36
2018-10-18T02:31:41.696Z,82.00
2018-10-18T02:32:45.645Z,81.99
2018-10-18T02:33:48.431Z,81.48
2018-10-18T02:34:51.196Z,80.95
2018-10-18T02:35:54.168Z,81.43
2018-10-18T02:36:57.248Z,80.60
2018-10-18T02:38:00.734Z,80.91
2018-10-18T02:39:03.560Z,80.90
2018-10-18T02:40:06.291Z,81.46
2018-10-18T02:41:09.298Z,80.98
2018-10-18T02:42:12.081Z,80.79
2018-10-18T02:43:14.822Z,80.55
2018-10-18T02:44:17.903Z,80.81
2018-10-18T02:45:20.639Z,80.44
2018-10-18T02:46:23.600Z,80.42
2018-10-18T02:47:26.340Z,80.72
2018-10-18T02:48:29.081Z,80.65
2018-10-18T02:49:31.794Z,80.64
2018-10-18T02:50:34.797Z,80.47
2018-10-18T02:51:37.517Z,80.09
2018-10-18T02:52:40.239Z,80.09
2018-10-18T02:53:42.981Z,79.96
2018-10-18T02:54:45.710Z,79.72
2018-10-18T02:55:48.430Z,79.18
2018-10-18T02:56:51.402Z,78.99
2018-10-18T02:57:54.122Z,79.90
2018-10-18T02:58:56.819Z,79.34
2018-10-18T02:59:59.587Z,79.93
2018-10-18T03:01:02.303Z,79.43
2018-10-18T03:02:05.003Z,79.55
2018-10-18T03:03:08.057Z,79.80
2018-10-18T03:04:10.760Z,79.09
2018-10-18T03:05:13.447Z,79.91
2018-10-18T03:06:16.272Z,80.09
2018-10-18T03:07:19.001Z,80.16
2018-10-18T03:08:21.842Z,80.13
2018-10-18T03:09:24.867Z,80.19
2018-10-18T03:10:27.585Z,80.27
2018-10-18T03:11:30.300Z,80.21
2018-10-18T03:12:33.104Z,80.70
2018-10-18T03:13:35.837Z,80.37
2018-10-18T03:14:38.568Z,81.21
2018-10-18T03:15:41.555Z,80.39
2018-10-18T03:16:44.290Z,81.03
2018-10-18T03:17:47.089Z,80.47
2018-10-18T03:18:49.820Z,80.50
2018-10-18T03:19:52.720Z,80.95
2018-10-18T03:20:55.419Z,81.29
2018-10-18T03:21:58.832Z,81.26
2018-10-18T03:23:01.530Z,80.22
2018-10-18T03:24:04.261Z,80.33
2018-10-18T03:25:07.009Z,79.76
2018-10-18T03:26:09.732Z,79.77
2018-10-18T03:27:12.450Z,80.09
2018-10-18T03:28:15.459Z,80.00
2018-10-18T03:29:18.178Z,79.94
2018-10-18T03:30:21.018Z,80.75
2018-10-18T03:31:23.739Z,80.76
2018-10-18T03:32:26.490Z,81.28
2018-10-18T03:33:29.234Z,81.30
2018-10-18T03:34:32.266Z,81.17
2018-10-18T03:35:34.959Z,81.34
2018-10-18T03:36:37.785Z,81.13
2018-10-18T03:37:40.610Z,80.85
2018-10-18T03:38:43.314Z,80.74
2018-10-18T03:39:46.050Z,81.28
2018-10-18T03:40:49.119Z,81.73
2018-10-18T03:41:51.939Z,82.67
2018-10-18T03:42:54.672Z,83.41
2018-10-18T03:43:57.373Z,83.26
2018-10-18T03:45:00.100Z,83.24
2018-10-18T03:46:02.807Z,83.40
2018-10-18T03:47:05.826Z,83.77
2018-10-18T03:48:08.643Z,83.39
2018-10-18T03:49:11.414Z,83.72
2018-10-18T03:50:14.114Z,83.51
2018-10-18T03:51:17.636Z,83.09
2018-10-18T03:52:20.342Z,82.87
2018-10-18T03:53:23.358Z,82.33
2018-10-18T03:54:26.119Z,82.64
2018-10-18T03:55:28.860Z,82.28
2018-10-18T03:56:31.649Z,82.14
2018-10-18T03:57:34.348Z,82.27
2018-10-18T03:58:37.731Z,81.99
2018-10-18T03:59:40.855Z,82.03
2018-10-18T04:00:43.627Z,82.34
2018-10-18T04:01:46.361Z,82.14
2018-10-18T04:02:49.112Z,81.48
2018-10-18T04:03:53.392Z,81.62
2018-10-18T04:04:56.110Z,82.03
2018-10-18T04:05:59.175Z,81.73
2018-10-18T04:07:01.891Z,81.83
2018-10-18T04:08:04.622Z,82.11
2018-10-18T04:09:07.348Z,82.08
2018-10-18T04:10:10.090Z,82.54
2018-10-18T04:11:12.781Z,82.56
2018-10-18T04:12:15.930Z,82.71
2018-10-18T04:13:18.669Z,83.11
2018-10-18T04:14:21.950Z,82.99
2018-10-18T04:15:24.660Z,82.91
2018-10-18T04:16:27.369Z,82.92
2018-10-18T04:17:30.183Z,83.24
2018-10-18T04:18:33.183Z,82.71
2018-10-18T04:19:35.960Z,82.43
2018-10-18T04:20:38.663Z,82.71
2018-10-18T04:21:41.397Z,82.20
2018-10-18T04:22:44.136Z,82.50
2018-10-18T04:23:46.858Z,82.35
2018-10-18T04:24:49.954Z,82.68
2018-10-18T04:25:52.676Z,82.49
2018-10-18T04:26:55.430Z,81.87
2018-10-18T04:27:58.197Z,82.19
2018-10-18T04:29:00.902Z,82.65
2018-10-18T04:30:03.720Z,82.31
2018-10-18T04:31:06.674Z,82.39
2018-10-18T04:32:09.413Z,82.38
2018-10-18T04:33:12.120Z,81.70
2018-10-18T04:34:14.864Z,81.86
2018-10-18T04:35:17.588Z,81.87
2018-10-18T04:36:20.363Z,82.17
2018-10-18T04:37:23.421Z,81.83
2018-10-18T04:38:26.122Z,82.00
2018-10-18T04:39:28.814Z,82.91
2018-10-18T04:40:31.489Z,82.70
2018-10-18T04:41:34.273Z,82.98
2018-10-18T04:42:37.058Z,82.91
2018-10-18T04:43:40.687Z,83.57
2018-10-18T04:44:43.383Z,83.46
2018-10-18T04:45:46.744Z,83.58
2018-10-18T04:46:50.145Z,83.38
2018-10-18T04:47:54.127Z,83.12
2018-10-18T04:48:56.763Z,83.63
2018-10-18T04:49:59.759Z,84.02
2018-10-18T04:51:03.467Z,83.92
2018-10-18T04:52:07.176Z,83.36
2018-10-18T04:53:09.982Z,84.28
2018-10-18T04:54:12.933Z,83.82
2018-10-18T04:55:15.754Z,84.25
2018-10-18T04:56:18.710Z,83.70
2018-10-18T04:57:21.522Z,83.64
2018-10-18T04:58:24.226Z,83.30
2018-10-18T04:59:27.980Z,83.14
2018-10-18T05:00:31.086Z,83.21
2018-10-18T05:01:33.830Z,83.71
2018-10-18T05:02:37.070Z,83.44
2018-10-18T05:03:40.744Z,83.49
2018-10-18T05:04:43.477Z,83.68
2018-10-18T05:05:46.366Z,83.35
2018-10-18T05:06:49.265Z,83.27
2018-10-18T05:07:51.959Z,82.37
2018-10-18T05:08:56.430Z,81.31
2018-10-18T05:09:59.125Z,81.02
2018-10-18T05:11:01.857Z,81.01
2018-10-18T05:12:04.607Z,81.36
2018-10-18T05:13:08.211Z,81.59
2018-10-18T05:14:10.904Z,81.86
2018-10-18T05:15:14.165Z,81.17
2018-10-18T05:16:16.865Z,82.10
2018-10-18T05:17:19.599Z,81.68
2018-10-18T05:18:22.763Z,81.73
2018-10-18T05:19:25.602Z,80.87
2018-10-18T05:20:28.366Z,81.04
2018-10-18T05:21:31.538Z,81.15
2018-10-18T05:22:34.330Z,81.29
2018-10-18T05:23:37.728Z,81.05
2018-10-18T05:24:42.630Z,82.23
2018-10-18T05:25:47.968Z,83.38
2018-10-18T05:26:51.572Z,83.77
2018-10-18T05:27:54.726Z,84.52
2018-10-18T05:28:57.678Z,84.23
2018-10-18T05:30:06.362Z,84.01
2018-10-18T05:44:28.728Z,85.93
2018-10-18T05:45:31.601Z,86.62
2018-10-18T05:46:34.648Z,86.11
2018-10-18T05:47:37.555Z,86.17
2018-10-18T05:48:40.440Z,86.44
2018-10-18T05:55:15.736Z,86.07
2018-10-18T05:56:18.583Z,86.66
2018-10-18T05:57:22.063Z,86.74
2018-10-18T05:58:26.047Z,86.98
2018-10-18T05:59:29.175Z,86.18
2018-10-18T06:00:33.823Z,86.62
2018-10-18T06:01:39.182Z,87.02
2018-10-18T06:02:42.498Z,87.20
2018-10-18T06:03:45.183Z,87.58
2018-10-18T06:04:48.716Z,87.73
2018-10-18T06:05:51.421Z,86.95
2018-10-18T06:06:54.199Z,87.28
2018-10-18T06:07:57.516Z,87.09
2018-10-18T06:09:00.311Z,87.38
2018-10-18T06:10:03.148Z,87.34
2018-10-18T06:11:05.804Z,87.70
2018-10-18T06:12:08.516Z,86.96
2018-10-18T06:13:11.305Z,86.81
2018-10-18T06:14:14.382Z,87.25
2018-10-18T06:15:17.143Z,87.02
2018-10-18T06:16:19.821Z,87.10
2018-10-18T06:17:22.506Z,86.96
2018-10-18T06:18:25.308Z,86.94
2018-10-18T06:19:28.050Z,87.31
2018-10-18T06:20:34.720Z,87.19
2018-10-18T06:21:37.604Z,87.05
2018-10-18T06:22:41.072Z,87.10
2018-10-18T06:23:44.361Z,86.94
2018-10-18T06:24:47.716Z,87.39
2018-10-18T06:25:50.898Z,87.07
2018-10-18T06:26:54.168Z,87.00
2018-10-18T06:27:57.541Z,86.58
2018-10-18T06:29:00.386Z,86.65
2018-10-18T06:30:03.240Z,87.21
2018-10-18T06:31:06.794Z,86.99
2018-10-18T06:32:10.507Z,86.46
2018-10-18T06:33:13.660Z,86.22
2018-10-18T06:34:16.441Z,86.25
2018-10-18T06:35:20.439Z,86.21
2018-10-18T06:36:23.185Z,86.25
2018-10-18T06:37:26.006Z,85.90
2018-10-18T06:38:28.689Z,85.65
2018-10-18T06:39:32.456Z,86.09
2018-10-18T06:40:35.171Z,85.71
2018-10-18T06:41:38.423Z,85.94
2018-10-18T06:42:41.510Z,85.86
2018-10-18T06:43:44.279Z,85.65
2018-10-18T06:44:47.033Z,85.47
2018-10-18T06:45:50.107Z,86.09
2018-10-18T06:46:52.863Z,85.40
2018-10-18T06:47:55.809Z,85.64
2018-10-18T06:48:59.219Z,85.67
2018-10-18T06:50:02.423Z,85.59
2018-10-18T06:51:05.870Z,84.94
2018-10-18T06:52:09.232Z,85.63
2018-10-18T06:53:11.939Z,85.64
2018-10-18T06:54:15.032Z,84.82
2018-10-18T06:55:17.854Z,84.81
2018-10-18T06:56:20.545Z,85.14
2018-10-18T06:57:24.447Z,84.66
2018-10-18T06:58:28.185Z,84.60
2018-10-18T06:59:31.994Z,84.59
2018-10-18T07:00:34.829Z,84.64
2018-10-18T07:01:37.591Z,84.30
2018-10-18T07:02:42.074Z,83.65
2018-10-18T07:03:44.956Z,83.79
2018-10-18T07:04:49.733Z,83.04
2018-10-18T07:05:52.473Z,82.99
2018-10-18T07:06:55.165Z,82.97
2018-10-18T07:07:57.904Z,82.37
2018-10-18T07:09:00.887Z,82.22
2018-10-18T07:10:03.943Z,82.25
2018-10-18T07:11:07.186Z,83.10
2018-10-18T07:12:11.187Z,82.70
2018-10-18T07:13:15.771Z,82.67
2018-10-18T07:14:19.979Z,82.16
2018-10-18T07:15:22.726Z,81.27
2018-10-18T07:16:27.012Z,80.92
2018-10-18T07:17:30.795Z,80.66
2018-10-18T07:18:33.792Z,80.40
2018-10-18T07:19:36.752Z,78.96
2018-10-18T07:20:43.943Z,78.85
2018-10-18T07:21:46.781Z,78.33
2018-10-18T07:22:49.501Z,78.27
2018-10-18T07:23:53.241Z,78.24
2018-10-18T07:24:57.956Z,77.97
2018-10-18T07:26:01.662Z,78.86
2018-10-18T07:27:05.539Z,79.81
2018-10-18T07:28:08.708Z,80.00
2018-10-18T07:29:11.554Z,79.54
2018-10-18T07:30:16.924Z,80.38
2018-10-18T07:31:20.583Z,79.55
2018-10-18T07:32:24.316Z,79.86
2018-10-18T07:33:27.965Z,78.46
2018-10-18T07:34:30.737Z,78.67
2018-10-18T07:35:34.008Z,78.57
2018-10-18T07:36:38.364Z,77.72
2018-10-18T07:37:44.572Z,77.16
2018-10-18T07:38:49.520Z,76.18
2018-10-18T07:39:54.386Z,75.86
2018-10-18T07:41:02.338Z,75.42
2018-10-18T07:42:05.800Z,74.95
2018-10-18T07:43:09.105Z,75.07
2018-10-18T07:44:12.821Z,74.83
2018-10-18T07:45:16.096Z,74.99
2018-10-18T07:46:19.554Z,74.31
2018-10-18T07:47:23.767Z,72.68
2018-10-18T07:48:28.535Z,72.65
2018-10-18T07:49:32.640Z,72.22
2018-10-18T07:50:37.065Z,73.52
2018-10-18T07:51:39.962Z,74.83
2018-10-18T07:52:43.866Z,75.49
2018-10-18T07:53:47.948Z,75.18
2018-10-18T07:54:52.860Z,74.94
2018-10-18T07:55:56.367Z,74.73
2018-10-18T07:56:59.512Z,74.79
2018-10-18T07:58:02.395Z,74.72
2018-10-18T07:59:05.697Z,74.70
2018-10-18T08:00:11.363Z,74.45
2018-10-18T08:01:17.040Z,73.98
2018-10-18T08:02:22.656Z,74.60
2018-10-18T08:03:26.540Z,74.45
2018-10-18T08:04:30.738Z,75.89
2018-10-18T08:05:33.726Z,74.64
2018-10-18T08:06:36.695Z,75.29
2018-10-18T08:07:40.155Z,74.98
2018-10-18T08:08:44.033Z,74.80
2018-10-18T08:09:49.672Z,73.58
2018-10-18T08:10:58.336Z,73.24
2018-10-18T08:12:01.893Z,72.03
2018-10-18T08:13:05.233Z,72.30
2018-10-18T08:14:09.682Z,71.57
2018-10-18T08:15:14.039Z,71.69
2018-10-18T08:16:17.764Z,71.51
2018-10-18T08:17:20.560Z,71.47
2018-10-18T08:18:23.447Z,72.38
2018-10-18T08:19:26.573Z,72.20
2018-10-18T08:20:29.848Z,72.19
2018-10-18T08:21:35.192Z,72.84
2018-10-18T08:22:38.538Z,72.67
2018-10-18T08:23:41.699Z,71.71
2018-10-18T08:24:44.716Z,71.11
2018-10-18T08:25:49.216Z,69.55
2018-10-18T08:26:55.476Z,69.09
2018-10-18T08:27:58.571Z,69.71
2018-10-18T08:29:01.451Z,67.99
2018-10-18T08:30:04.733Z,66.89
2018-10-18T08:31:08.455Z,66.53
2018-10-18T08:32:11.315Z,66.35
2018-10-18T08:33:14.428Z,66.76
2018-10-18T08:34:18.564Z,66.26
2018-10-18T08:35:22.146Z,66.10
2018-10-18T08:36:26.661Z,65.13
2018-10-18T08:37:30.159Z,65.82
2018-10-18T08:38:34.432Z,64.81
2018-10-18T08:39:38.712Z,64.45
2018-10-18T08:40:42.598Z,65.69
2018-10-18T08:41:45.667Z,66.20
2018-10-18T08:42:50.771Z,65.81
2018-10-18T08:43:53.573Z,63.83
2018-10-18T08:44:57.561Z,62.57
2018-10-18T08:46:01.435Z,64.87
2018-10-18T08:47:09.348Z,65.08
2018-10-18T08:48:13.472Z,64.64
2018-10-18T08:49:16.294Z,62.98
2018-10-18T08:50:19.067Z,62.74
2018-10-18T08:51:21.901Z,62.31
2018-10-18T08:52:36.398Z,62.28
2018-10-18T08:53:39.200Z,61.32
2018-10-18T08:54:41.955Z,62.45
2018-10-18T08:55:44.726Z,62.93
2018-10-18T08:56:48.569Z,62.83
2018-10-18T08:57:51.872Z,61.65
2018-10-18T08:58:55.266Z,62.40
2018-10-18T08:59:58.144Z,62.31
2018-10-18T09:01:01.928Z,62.05
2018-10-18T09:02:06.901Z,62.04
2018-10-18T09:03:10.604Z,63.24
2018-10-18T09:04:16.270Z,62.43
2018-10-18T09:05:23.523Z,62.12
2018-10-18T09:06:27.648Z,60.87
2018-10-18T09:07:35.051Z,58.84
2018-10-18T09:08:38.390Z,58.81
2018-10-18T09:09:42.369Z,58.71
2018-10-18T09:10:45.132Z,58.63
2018-10-18T09:11:48.672Z,59.32
2018-10-18T09:12:52.305Z,58.40
2018-10-18T09:13:55.470Z,59.39
2018-10-18T09:15:00.779Z,58.34
2018-10-18T09:16:05.335Z,57.08
2018-10-18T09:17:08.298Z,56.63
2018-10-18T09:18:11.463Z,56.95
2018-10-18T09:19:17.004Z,56.43
2018-10-18T09:20:20.041Z,56.50
2018-10-18T09:21:24.584Z,55.36
2018-10-18T09:22:30.516Z,54.93
2018-10-18T09:23:35.682Z,55.30
2018-10-18T09:24:41.023Z,54.23
2018-10-18T09:25:45.687Z,54.48
2018-10-18T09:26:55.246Z,54.60
2018-10-18T09:27:57.961Z,53.25
2018-10-18T09:29:01.848Z,53.52
2018-10-18T09:30:04.605Z,52.91
2018-10-18T09:31:08.091Z,53.60
2018-10-18T09:32:10.880Z,53.02
2018-10-18T09:33:15.435Z,53.85
2018-10-18T09:34:18.760Z,53.43
2018-10-18T09:35:23.496Z,52.34
2018-10-18T09:36:26.383Z,52.25
2018-10-18T09:37:29.492Z,54.15
2018-10-18T09:38:32.252Z,53.57
2018-10-18T09:39:35.479Z,56.75
2018-10-18T09:40:38.341Z,60.31
2018-10-18T09:41:41.141Z,61.33
2018-10-18T09:42:43.983Z,60.77
2018-10-18T09:43:49.376Z,59.73
2018-10-18T09:44:53.616Z,58.27
2018-10-18T09:45:59.781Z,58.09
2018-10-18T09:47:03.584Z,56.51
2018-10-18T09:48:07.922Z,56.61
2018-10-18T09:49:11.446Z,55.79
2018-10-18T09:50:16.340Z,57.37
2018-10-18T09:51:23.447Z,55.91
2018-10-18T09:52:27.769Z,55.12
2018-10-18T09:53:36.129Z,54.83
2018-10-18T09:54:40.655Z,55.67
2018-10-18T09:55:47.288Z,55.99
2018-10-18T09:56:52.334Z,54.82
2018-10-18T09:57:56.806Z,55.36
2018-10-18T09:59:02.498Z,54.38
2018-10-18T10:00:06.224Z,55.45
2018-10-18T10:01:15.262Z,54.29
2018-10-18T10:02:23.500Z,53.42
2018-10-18T10:03:26.405Z,52.82
2018-10-18T10:04:29.869Z,52.84
2018-10-18T10:05:33.093Z,53.69
2018-10-18T10:06:37.693Z,54.62
2018-10-18T10:07:41.654Z,53.90
2018-10-18T10:08:45.994Z,53.56
2018-10-18T10:09:49.103Z,55.43
2018-10-18T10:10:52.516Z,55.60
2018-10-18T10:11:57.222Z,55.42
2018-10-18T10:13:00.912Z,54.15
2018-10-18T10:14:04.631Z,55.68
2018-10-18T10:15:08.613Z,56.51
2018-10-18T10:16:12.320Z,54.82
2018-10-18T10:17:16.090Z,55.08
2018-10-18T10:18:19.528Z,54.26
2018-10-18T10:19:23.816Z,53.18
2018-10-18T10:20:26.607Z,53.70
2018-10-18T10:21:29.807Z,52.98
2018-10-18T10:22:32.816Z,52.91
2018-10-18T10:23:37.338Z,52.50
2018-10-18T10:24:40.809Z,52.58
2018-10-18T10:25:44.608Z,52.71
2018-10-18T10:26:47.726Z,53.47
2018-10-18T10:27:52.023Z,53.27
2018-10-18T10:28:55.334Z,52.44
2018-10-18T10:30:01.161Z,51.89
2018-10-18T10:43:04.129Z,55.28
2018-10-18T10:44:11.026Z,55.27
2018-10-18T10:45:15.764Z,56.18
2018-10-18T10:46:19.390Z,56.34
2018-10-18T10:47:22.274Z,56.78
2018-10-18T10:48:25.716Z,57.90
2018-10-18T10:49:29.745Z,58.08
2018-10-18T10:50:32.541Z,58.03
2018-10-18T10:51:35.462Z,59.24
2018-10-18T10:52:38.588Z,59.36
2018-10-18T10:53:41.310Z,59.34
2018-10-18T10:54:44.670Z,59.28
2018-10-18T10:55:47.515Z,59.70
2018-10-18T10:56:50.252Z,60.69
2018-10-18T10:57:53.847Z,60.05
2018-10-18T10:58:56.805Z,60.73
2018-10-18T11:00:04.647Z,61.04
2018-10-18T11:01:08.439Z,61.01
2018-10-18T11:02:11.657Z,61.95
2018-10-18T11:03:14.802Z,61.53
2018-10-18T11:04:21.270Z,61.94
2018-10-18T11:05:25.644Z,62.49
2018-10-18T11:06:29.469Z,62.79
2018-10-18T11:07:33.012Z,63.53
2018-10-18T11:08:38.259Z,62.83
2018-10-18T11:09:42.390Z,63.51
2018-10-18T11:10:46.713Z,62.69
2018-10-18T11:11:50.886Z,62.50
2018-10-18T11:12:53.699Z,62.57
2018-10-18T11:13:56.855Z,63.06
2018-10-18T11:15:01.630Z,62.96
2018-10-18T11:16:05.125Z,63.61
2018-10-18T11:17:08.911Z,63.99
2018-10-18T11:18:14.003Z,64.02
2018-10-18T11:19:18.145Z,62.75
2018-10-18T11:20:21.783Z,62.57
2018-10-18T11:21:24.524Z,62.51
2018-10-18T11:22:27.601Z,63.21
2018-10-18T11:23:30.985Z,62.34
2018-10-18T11:24:34.933Z,62.68
2018-10-18T11:25:38.921Z,62.29
2018-10-18T11:26:44.467Z,61.94
2018-10-18T11:27:47.490Z,62.63
2018-10-18T11:28:51.448Z,62.19
2018-10-18T11:29:54.562Z,61.06
2018-10-18T11:31:00.429Z,61.22
2018-10-18T11:32:03.822Z,60.60
2018-10-18T11:33:08.778Z,60.94
2018-10-18T11:34:15.028Z,60.50
2018-10-18T11:35:17.881Z,59.61
2018-10-18T11:36:20.634Z,59.95
2018-10-18T11:37:25.015Z,60.76
2018-10-18T11:38:28.548Z,60.73
2018-10-18T11:39:32.214Z,60.21
2018-10-18T11:40:35.085Z,58.82
2018-10-18T11:41:37.923Z,58.42
2018-10-18T11:42:40.795Z,57.35
2018-10-18T11:43:46.967Z,56.35
2018-10-18T11:44:50.811Z,56.34
2018-10-18T11:45:55.343Z,56.80
2018-10-18T11:46:59.128Z,56.40
2018-10-18T11:48:02.025Z,56.71
2018-10-18T11:49:04.781Z,55.03
2018-10-18T11:50:08.475Z,55.30
2018-10-18T11:51:12.775Z,53.54
2018-10-18T11:52:16.152Z,53.24
2018-10-18T11:53:19.455Z,52.96
2018-10-18T11:54:27.625Z,52.37
2018-10-18T11:55:31.783Z,53.09
2018-10-18T11:56:34.838Z,53.71
2018-10-18T11:57:38.863Z,55.02
2018-10-18T11:58:42.526Z,55.30
2018-10-18T11:59:46.445Z,55.65
2018-10-18T12:00:49.915Z,56.25
2018-10-18T12:01:53.532Z,56.70
2018-10-18T12:02:57.282Z,56.79
2018-10-18T12:04:00.633Z,56.21
2018-10-18T12:05:03.547Z,57.38
2018-10-18T12:06:06.662Z,57.47
2018-10-18T12:07:10.279Z,56.54
2018-10-18T12:08:15.344Z,57.47
2018-10-18T12:09:22.718Z,57.08
2018-10-18T12:10:26.907Z,57.22
2018-10-18T12:11:31.966Z,57.93
2018-10-18T12:12:35.436Z,57.52
2018-10-18T12:13:38.287Z,57.26
2018-10-18T12:14:42.627Z,57.81
2018-10-18T12:15:46.500Z,57.77
2018-10-18T12:16:49.589Z,58.64
2018-10-18T12:17:52.779Z,58.60
2018-10-18T12:18:55.633Z,58.77
2018-10-18T12:19:58.685Z,58.78
2018-10-18T12:21:02.743Z,59.38
2018-10-18T12:22:09.995Z,58.96
2018-10-18T12:23:14.260Z,58.87
2018-10-18T12:24:19.573Z,58.87
2018-10-18T12:25:23.863Z,59.59
2018-10-18T12:26:28.480Z,59.34
2018-10-18T12:27:31.270Z,59.29
2018-10-18T12:28:34.681Z,60.05
2018-10-18T12:29:39.620Z,60.05
2018-10-18T12:30:44.888Z,59.56
2018-10-18T12:31:48.556Z,60.13
2018-10-18T12:32:51.863Z,60.27
2018-10-18T12:33:58.061Z,60.33
2018-10-18T12:35:02.350Z,59.64
2018-10-18T12:36:08.453Z,59.59
2018-10-18T12:37:13.672Z,59.73
2018-10-18T12:38:18.772Z,60.40
2018-10-18T12:39:23.851Z,60.49
2018-10-18T12:40:30.519Z,60.44
2018-10-18T12:41:35.291Z,59.86
2018-10-18T12:42:42.216Z,59.60
2018-10-18T12:43:48.507Z,60.53
2018-10-18T12:44:53.359Z,59.97
2018-10-18T12:45:59.421Z,61.00
2018-10-18T12:47:04.585Z,61.24
2018-10-18T12:48:09.361Z,61.04
2018-10-18T12:49:15.649Z,61.09
2018-10-18T12:50:22.296Z,60.48
2018-10-18T12:51:36.134Z,61.08
2018-10-18T12:52:39.833Z,61.14
2018-10-18T12:53:43.181Z,60.54
2018-10-18T12:54:46.473Z,60.23
2018-10-18T12:55:51.217Z,60.70
2018-10-18T12:56:55.937Z,60.38
2018-10-18T12:58:00.449Z,60.16
2018-10-18T12:59:06.970Z,60.52
2018-10-18T13:00:11.632Z,60.50
2018-10-18T13:01:17.173Z,60.87
2018-10-18T13:02:21.864Z,60.92
2018-10-18T13:03:28.992Z,60.25
2018-10-18T13:04:32.294Z,60.55
2018-10-18T13:05:35.218Z,60.23
2018-10-18T13:06:38.798Z,60.08
2018-10-18T13:07:43.201Z,60.72
2018-10-18T13:08:48.304Z,60.16
2018-10-18T13:09:52.804Z,60.33
2018-10-18T13:10:57.023Z,60.60
2018-10-18T13:12:04.513Z,59.82
2018-10-18T13:13:09.148Z,59.75
2018-10-18T13:14:13.516Z,58.99
2018-10-18T13:15:19.649Z,59.14
2018-10-18T13:16:25.419Z,58.54
2018-10-18T13:17:35.222Z,59.32
2018-10-18T13:18:39.281Z,59.42
2018-10-18T13:19:43.663Z,59.33
2018-10-18T13:20:47.188Z,59.13
2018-10-18T13:21:51.577Z,58.57
2018-10-18T13:22:58.553Z,59.30
2018-10-18T13:24:03.435Z,59.53
2018-10-18T13:25:09.383Z,59.16
2018-10-18T13:26:15.189Z,58.99
2018-10-18T13:27:22.547Z,58.62
2018-10-18T13:28:27.731Z,59.37
2018-10-18T13:29:34.622Z,59.13
2018-10-18T13:30:39.041Z,59.00
2018-10-18T13:31:52.808Z,59.86
2018-10-18T13:32:58.578Z,59.30
2018-10-18T13:34:04.975Z,59.97
2018-10-18T13:35:11.569Z,59.63
2018-10-18T13:36:16.883Z,59.44
2018-10-18T13:37:20.465Z,60.01
2018-10-18T13:38:27.817Z,59.29
2018-10-18T13:39:33.394Z,59.68
2018-10-18T13:40:37.330Z,60.32
2018-10-18T13:41:42.972Z,59.50
2018-10-18T13:42:49.211Z,59.20
2018-10-18T13:43:54.601Z,59.75
2018-10-18T13:44:59.350Z,59.47
2018-10-18T13:46:04.146Z,59.65
2018-10-18T13:47:09.787Z,60.29
2018-10-18T13:48:18.372Z,60.23
2018-10-18T13:49:22.688Z,59.31
2018-10-18T13:50:28.656Z,60.20
2018-10-18T13:51:33.728Z,59.71
2018-10-18T13:52:38.178Z,58.84
2018-10-18T13:53:42.813Z,59.68
2018-10-18T13:54:47.280Z,59.48
2018-10-18T13:55:50.889Z,59.53
2018-10-18T13:56:56.228Z,59.34
2018-10-18T13:58:02.775Z,59.47
2018-10-18T13:59:08.528Z,59.78
2018-10-18T14:00:16.675Z,59.93
2018-10-18T14:01:22.433Z,60.11
2018-10-18T14:02:27.006Z,59.56
2018-10-18T14:03:32.977Z,59.66
2018-10-18T14:04:37.942Z,59.94
2018-10-18T14:05:45.314Z,60.18
2018-10-18T14:06:51.129Z,59.43
2018-10-18T14:07:57.709Z,60.14
2018-10-18T14:09:02.049Z,59.75
2018-10-18T14:10:06.305Z,60.67
2018-10-18T14:11:12.129Z,59.78
2018-10-18T14:12:17.710Z,60.14